createdAt,value
2022-08-11T00:01:37.272Z,101408.59
2022-08-11T00:04:39.947Z,101406.16
2022-08-11T00:07:53.687Z,101401.00
2022-08-11T00:10:59.262Z,101395.22
2022-08-11T00:14:03.153Z,101395.59
2022-08-11T00:17:08.602Z,101393.31
2022-08-11T00:20:16.685Z,101399.13
2022-08-11T00:23:19.793Z,101397.66
2022-08-11T00:26:23.698Z,101395.94
2022-08-11T00:29:25.359Z,101398.78
2022-08-11T00:32:28.529Z,101400.75
2022-08-11T00:35:54.097Z,101401.75
2022-08-11T00:39:02.830Z,101400.25
2022-08-11T00:42:10.142Z,101399.66
2022-08-11T00:45:30.412Z,101401.72
2022-08-11T00:49:08.965Z,101398.69
2022-08-11T00:52:28.624Z,101397.38
2022-08-11T00:55:36.388Z,101400.06
2022-08-11T00:58:51.119Z,101394.03
2022-08-11T01:02:14.677Z,101399.13
2022-08-11T01:05:38.759Z,101400.47
2022-08-11T01:08:40.481Z,101402.47
2022-08-11T01:11:57.757Z,101401.47
2022-08-11T01:15:37.394Z,101400.59
2022-08-11T01:18:51.172Z,101409.09
2022-08-11T01:22:30.369Z,101411.31
2022-08-11T01:25:56.821Z,101411.69
2022-08-11T01:29:29.940Z,101408.50
2022-08-11T01:33:11.759Z,101416.03
2022-08-11T01:36:53.550Z,101421.56
2022-08-11T01:40:17.675Z,101418.25
2022-08-11T01:43:50.114Z,101420.09
2022-08-11T01:47:33.437Z,101427.59
2022-08-11T01:50:51.519Z,101422.69
2022-08-11T01:53:53.253Z,101420.59
2022-08-11T01:57:04.133Z,101422.66
2022-08-11T02:00:14.862Z,101423.66
2022-08-11T02:03:25.822Z,101424.75
2022-08-11T02:06:59.703Z,101415.31
2022-08-11T02:10:36.364Z,101414.06
2022-08-11T02:14:07.308Z,101420.69
2022-08-11T02:17:20.981Z,101415.66
2022-08-11T02:21:07.422Z,101415.03
2022-08-11T02:24:22.111Z,101413.44
2022-08-11T02:27:27.469Z,101406.53
2022-08-11T02:30:37.102Z,101417.56
2022-08-11T02:33:42.111Z,101410.94
2022-08-11T02:36:55.125Z,101402.31
2022-08-11T02:40:00.529Z,101402.44
2022-08-11T02:43:18.157Z,101410.66
2022-08-11T02:46:21.874Z,101410.16
2022-08-11T02:50:02.742Z,101409.53
2022-08-11T02:53:17.994Z,101413.22
2022-08-11T02:56:44.891Z,101415.44
2022-08-11T02:59:59.328Z,101417.63
2022-08-11T03:03:07.567Z,101406.06
2022-08-11T03:06:24.439Z,101411.81
2022-08-11T03:09:38.235Z,101413.16
2022-08-11T03:13:16.823Z,101415.09
2022-08-11T03:16:45.803Z,101405.91
2022-08-11T03:20:12.577Z,101414.13
2022-08-11T03:23:49.773Z,101410.78
2022-08-11T03:27:07.018Z,101415.22
2022-08-11T03:30:19.318Z,101403.03
2022-08-11T03:34:04.148Z,101407.94
2022-08-11T03:37:45.043Z,101410.97
2022-08-11T03:42:02.368Z,101410.25
2022-08-11T03:45:01.219Z,101417.59
2022-08-11T03:48:11.910Z,101421.63
2022-08-11T03:51:22.802Z,101404.78
2022-08-11T03:54:47.599Z,101417.66
2022-08-11T03:58:13.579Z,101409.56
2022-08-11T04:01:45.674Z,101410.91
2022-08-11T04:05:24.766Z,101410.13
2022-08-11T04:09:00.390Z,101409.28
2022-08-11T04:12:36.394Z,101413.78
2022-08-11T04:16:10.952Z,101417.47
2022-08-11T04:19:29.533Z,101405.19
2022-08-11T04:22:54.229Z,101411.47
2022-08-11T04:26:16.143Z,101409.50
2022-08-11T04:30:05.019Z,101400.31
2022-08-11T04:33:36.434Z,101407.31
2022-08-11T04:37:05.741Z,101408.81
2022-08-11T04:40:49.734Z,101407.38
2022-08-11T04:44:07.780Z,101405.28
2022-08-11T04:48:15.500Z,101404.72
2022-08-11T04:51:50.530Z,101405.38
2022-08-11T04:55:44.992Z,101410.38
2022-08-11T04:59:14.730Z,101409.09
2022-08-11T05:02:46.703Z,101408.25
2022-08-11T05:06:05.928Z,101404.84
2022-08-11T05:09:10.576Z,101404.13
2022-08-11T05:12:20.759Z,101409.94
2022-08-11T05:16:12.058Z,101405.28
2022-08-11T05:19:37.594Z,101403.25
2022-08-11T05:23:06.306Z,101403.25
2022-08-11T05:26:47.045Z,101407.69
2022-08-11T05:30:15.396Z,101410.00
2022-08-11T05:34:07.479Z,101407.75
2022-08-11T05:37:33.112Z,101411.25
2022-08-11T05:40:59.926Z,101408.59
2022-08-11T05:44:23.030Z,101403.28
2022-08-11T05:47:44.842Z,101414.16
2022-08-11T05:51:16.644Z,101418.75
2022-08-11T05:54:37.712Z,101417.31
2022-08-11T05:57:50.810Z,101407.81
2022-08-11T06:00:54.263Z,101408.28
2022-08-11T06:04:16.230Z,101404.44
2022-08-11T06:07:17.998Z,101410.28
2022-08-11T06:10:49.384Z,101421.41
2022-08-11T06:13:52.793Z,101419.88
2022-08-11T06:17:01.704Z,101409.84
2022-08-11T06:20:12.037Z,101412.53
2022-08-11T06:23:18.094Z,101412.72
2022-08-11T06:26:20.470Z,101412.63
2022-08-11T06:29:38.106Z,101411.44
2022-08-11T06:32:55.598Z,101412.41
2022-08-11T06:36:12.398Z,101404.97
2022-08-11T06:39:33.470Z,101407.47
2022-08-11T06:42:44.944Z,101408.00
2022-08-11T06:46:03.943Z,101407.41
2022-08-11T06:49:07.026Z,101404.22
2022-08-11T06:52:35.792Z,101402.13
2022-08-11T06:56:01.493Z,101413.03
2022-08-11T06:59:22.096Z,101408.81
2022-08-11T07:02:47.273Z,101414.56
2022-08-11T07:05:56.004Z,101417.19
2022-08-11T07:09:25.481Z,101414.91
2022-08-11T07:12:59.219Z,101416.38
2022-08-11T07:16:12.734Z,101415.47
2022-08-11T07:19:40.233Z,101410.06
2022-08-11T07:23:10.397Z,101418.31
2022-08-11T07:26:32.199Z,101412.41
2022-08-11T07:29:36.711Z,101422.88
2022-08-11T07:32:52.082Z,101421.94
2022-08-11T07:35:57.217Z,101415.81
2022-08-11T07:39:00.193Z,101413.09
2022-08-11T07:42:07.137Z,101425.41
2022-08-11T07:45:28.886Z,101414.50
2022-08-11T07:48:50.572Z,101411.28
2022-08-11T07:52:12.364Z,101413.50
2022-08-11T07:55:16.926Z,101417.09
2022-08-11T07:58:45.811Z,101416.97
2022-08-11T08:02:13.573Z,101416.78
2022-08-11T08:05:36.444Z,101419.13
2022-08-11T08:08:59.600Z,101425.81
2022-08-11T08:12:22.638Z,101416.72
2022-08-11T08:15:42.804Z,101415.53
2022-08-11T08:18:44.929Z,101413.28
2022-08-11T08:21:48.354Z,101411.38
2022-08-11T08:24:51.372Z,101410.66
2022-08-11T08:27:58.195Z,101412.72
2022-08-11T08:31:00.361Z,101409.19
2022-08-11T08:34:03.398Z,101409.66
2022-08-11T08:37:16.145Z,101419.16
2022-08-11T08:40:28.247Z,101416.53
2022-08-11T08:43:32.562Z,101416.31
2022-08-11T08:46:54.868Z,101419.88
2022-08-11T08:50:02.584Z,101418.09
2022-08-11T08:53:08.300Z,101418.91
2022-08-11T08:56:11.005Z,101419.53
2022-08-11T08:59:14.690Z,101401.94
2022-08-11T09:02:20.597Z,101410.22
2022-08-11T09:05:37.484Z,101409.09
2022-08-11T09:08:40.857Z,101406.81
2022-08-11T09:11:56.063Z,101397.69
2022-08-11T09:15:05.794Z,101390.03
2022-08-11T09:18:09.365Z,101396.31
2022-08-11T09:21:39.355Z,101399.69
2022-08-11T09:24:56.909Z,101394.78
2022-08-11T09:27:59.439Z,101396.16
2022-08-11T09:31:02.564Z,101386.25
2022-08-11T09:34:04.441Z,101388.50
2022-08-11T09:37:53.321Z,101380.13
2022-08-11T09:40:56.325Z,101373.88
2022-08-11T09:44:19.890Z,101371.06
2022-08-11T09:47:24.536Z,101366.63
2022-08-11T09:50:26.599Z,101372.28
2022-08-11T09:53:40.717Z,101366.06
2022-08-11T09:57:05.354Z,101363.97
2022-08-11T10:00:13.076Z,101359.19
2022-08-11T10:03:19.203Z,101351.59
2022-08-11T10:06:39.492Z,101356.22
2022-08-11T10:09:46.820Z,101353.34
2022-08-11T10:14:31.532Z,101345.94
2022-08-11T10:16:50.029Z,101334.13
2022-08-11T10:20:05.506Z,101334.84
2022-08-11T10:23:28.965Z,101330.66
2022-08-11T10:26:51.606Z,101325.25
2022-08-11T10:30:14.637Z,101321.47
2022-08-11T10:33:39.218Z,101325.06
2022-08-11T10:36:50.126Z,101326.56
2022-08-11T10:39:53.668Z,101314.75
2022-08-11T10:43:13.080Z,101318.38
2022-08-11T10:46:34.305Z,101307.41
2022-08-11T10:49:36.221Z,101303.38
2022-08-11T10:52:58.436Z,101302.31
2022-08-11T10:56:20.791Z,101293.63
2022-08-11T10:59:26.794Z,101293.41
2022-08-11T11:02:31.286Z,101299.81
2022-08-11T11:05:33.128Z,101295.13
2022-08-11T11:08:57.649Z,101298.09
2022-08-11T11:12:54.962Z,101286.41
2022-08-11T11:16:15.126Z,101287.25
2022-08-11T11:19:23.941Z,101284.53
2022-08-11T11:22:40.063Z,101297.03
2022-08-11T11:26:06.553Z,101289.63
2022-08-11T11:29:11.588Z,101288.16
2022-08-11T11:32:35.214Z,101282.19
2022-08-11T11:35:48.805Z,101282.41
2022-08-11T11:38:50.638Z,101278.16
2022-08-11T11:41:55.696Z,101276.91
2022-08-11T11:45:01.182Z,101273.91
2022-08-11T11:48:03.366Z,101273.91
2022-08-11T11:51:05.622Z,101267.97
2022-08-11T11:54:10.700Z,101273.91
2022-08-11T11:57:34.061Z,101270.34
2022-08-11T12:00:54.880Z,101266.94
2022-08-11T12:03:57.716Z,101258.66
2022-08-11T12:07:18.160Z,101261.22
2022-08-11T12:10:20.142Z,101255.25
2022-08-11T12:13:40.327Z,101255.03
2022-08-11T12:16:44.594Z,101246.97
2022-08-11T12:19:48.601Z,101240.41
2022-08-11T12:23:09.254Z,101243.81
2022-08-11T12:26:36.474Z,101233.38
2022-08-11T12:29:41.157Z,101239.09
2022-08-11T12:32:46.020Z,101229.38
2022-08-11T12:36:01.131Z,101232.13
2022-08-11T12:39:23.319Z,101220.22
2022-08-11T12:42:45.818Z,101213.22
2022-08-11T12:46:00.337Z,101209.84
2022-08-11T12:49:45.226Z,101201.53
2022-08-11T12:52:54.164Z,101182.84
2022-08-11T12:56:18.080Z,101201.09
2022-08-11T12:59:38.774Z,101192.41
2022-08-11T13:02:59.986Z,101190.28
2022-08-11T13:06:04.049Z,101182.84
2022-08-11T13:09:07.605Z,101183.91
2022-08-11T13:12:29.086Z,101181.78
2022-08-11T13:15:31.766Z,101177.72
2022-08-11T13:18:34.393Z,101178.31
2022-08-11T13:21:36.583Z,101176.19
2022-08-11T13:24:39.561Z,101171.91
2022-08-11T13:27:41.648Z,101173.38
2022-08-11T13:31:02.085Z,101166.13
2022-08-11T13:37:05.733Z,101158.66
2022-08-11T13:40:09.128Z,101159.25
2022-08-11T13:43:11.884Z,101155.41
2022-08-11T13:46:20.128Z,101151.59
2022-08-11T13:49:22.584Z,101149.03
2022-08-11T13:52:26.319Z,101153.94
2022-08-11T13:55:51.642Z,101144.59
2022-08-11T13:58:53.838Z,101147.56
2022-08-11T14:02:21.187Z,101143.75
2022-08-11T14:05:29.112Z,101142.44
2022-08-11T14:08:38.904Z,101137.09
2022-08-11T14:12:22.437Z,101137.94
2022-08-11T14:15:31.084Z,101129.00
2022-08-11T14:18:33.957Z,101132.59
2022-08-11T14:21:56.699Z,101119.66
2022-08-11T14:24:58.808Z,101130.03
2022-08-11T14:28:29.717Z,101124.06
2022-08-11T14:31:27.398Z,101115.09
2022-08-11T14:34:57.211Z,101108.94
2022-08-11T14:37:59.291Z,101104.50
2022-08-11T14:41:20.518Z,101103.25
2022-08-11T14:44:41.164Z,101103.25
2022-08-11T14:47:44.718Z,101100.28
2022-08-11T14:50:46.986Z,101105.13
2022-08-11T14:54:09.107Z,101108.56
2022-08-11T14:57:11.608Z,101104.50
2022-08-11T15:00:15.805Z,101106.38
2022-08-11T15:03:17.866Z,101091.53
2022-08-11T15:06:19.835Z,101090.97
2022-08-11T15:09:21.685Z,101089.94
2022-08-11T15:12:31.547Z,101088.69
2022-08-11T15:15:54.856Z,101090.69
2022-08-11T15:18:57.846Z,101087.25
2022-08-11T15:22:18.041Z,101084.50
2022-08-11T15:25:20.908Z,101077.31
2022-08-11T15:28:44.252Z,101078.38
2022-08-11T15:32:07.665Z,101080.09
2022-08-11T15:35:38.963Z,101075.00
2022-08-11T15:39:08.904Z,101078.19
2022-08-11T15:42:39.974Z,101070.34
2022-08-11T15:45:49.151Z,101069.06
2022-08-11T15:48:58.005Z,101062.25
2022-08-11T15:52:06.317Z,101058.84
2022-08-11T15:55:09.171Z,101059.28
2022-08-11T15:58:31.899Z,101051.25
2022-08-11T16:01:54.141Z,101049.53
2022-08-11T16:04:56.925Z,101050.63
2022-08-11T16:07:59.789Z,101035.97
2022-08-11T16:11:06.507Z,101039.00
2022-08-11T16:14:34.250Z,101030.09
2022-08-11T16:17:45.085Z,101030.72
2022-08-11T16:20:49.068Z,101031.56
2022-08-11T16:23:53.441Z,101032.41
2022-08-11T16:27:07.692Z,101026.50
2022-08-11T16:30:16.983Z,101025.22
2022-08-11T16:33:35.575Z,101022.00
2022-08-11T16:37:01.028Z,101016.56
2022-08-11T16:40:03.908Z,101018.50
2022-08-11T16:43:30.723Z,101012.16
2022-08-11T16:46:51.688Z,101014.94
2022-08-11T16:49:58.691Z,101013.25
2022-08-11T16:53:00.360Z,101013.00
2022-08-11T16:56:10.129Z,101013.44
2022-08-11T16:59:19.743Z,101010.03
2022-08-11T17:02:43.021Z,101008.38
2022-08-11T17:06:10.308Z,101008.59
2022-08-11T17:09:37.172Z,101013.50
2022-08-11T17:13:00.278Z,101006.75
2022-08-11T17:16:07.347Z,101009.53
2022-08-11T17:19:13.861Z,101007.63
2022-08-11T17:22:36.490Z,101011.00
2022-08-11T17:26:03.677Z,100998.03
2022-08-11T17:29:02.485Z,101005.69
2022-08-11T17:32:26.737Z,101001.88
2022-08-11T17:35:32.605Z,100992.16
2022-08-11T17:38:35.606Z,100993.44
2022-08-11T17:41:57.436Z,100995.34
2022-08-11T17:45:19.627Z,100993.84
2022-08-11T17:48:27.501Z,100999.16
2022-08-11T17:51:48.875Z,100992.16
2022-08-11T17:55:10.261Z,100995.97
2022-08-11T17:58:35.787Z,101001.06
2022-08-11T18:01:39.019Z,100997.44
2022-08-11T18:04:44.706Z,101002.56
2022-08-11T18:08:06.873Z,100997.69
2022-08-11T18:12:10.682Z,100998.53
2022-08-11T18:15:13.295Z,101001.09
2022-08-11T18:18:33.506Z,101003.59
2022-08-11T18:22:12.848Z,101007.78
2022-08-11T18:25:44.775Z,101005.41
2022-08-11T18:29:10.846Z,101010.16
2022-08-11T18:32:49.171Z,101012.19
2022-08-11T18:36:17.251Z,101012.09
2022-08-11T18:39:40.438Z,101020.84
2022-08-11T18:43:02.092Z,101012.63
2022-08-11T18:46:25.795Z,101019.69
2022-08-11T18:50:02.353Z,101012.97
2022-08-11T18:53:25.355Z,101018.44
2022-08-11T18:56:46.592Z,101021.63
2022-08-11T19:00:08.823Z,101022.16
2022-08-11T19:03:31.817Z,101018.78
2022-08-11T19:07:06.315Z,101031.88
2022-08-11T19:10:27.481Z,101029.97
2022-08-11T19:13:51.590Z,101031.88
2022-08-11T19:17:14.486Z,101039.78
2022-08-11T19:20:56.165Z,101039.47
2022-08-11T19:24:20.064Z,101039.28
2022-08-11T19:27:43.539Z,101043.00
2022-08-11T19:31:04.457Z,101041.25
2022-08-11T19:34:26.786Z,101047.81
2022-08-11T19:37:47.891Z,101044.66
2022-08-11T19:41:08.954Z,101046.47
2022-08-11T19:44:30.987Z,101041.75
2022-08-11T19:48:03.404Z,101043.91
2022-08-11T19:51:33.757Z,101050.97
2022-08-11T19:54:55.358Z,101053.06
2022-08-11T19:58:16.142Z,101052.41
2022-08-11T20:01:36.482Z,101049.91
2022-08-11T20:04:56.709Z,101050.63
2022-08-11T20:08:18.632Z,101049.75
2022-08-11T20:11:40.613Z,101049.09
2022-08-11T20:15:02.278Z,101049.09
2022-08-11T20:18:25.373Z,101056.09
2022-08-11T20:21:47.110Z,101053.91
2022-08-11T20:25:08.984Z,101044.00
2022-08-11T20:28:32.917Z,101055.97
2022-08-11T20:31:56.282Z,101054.94
2022-08-11T20:35:18.380Z,101050.66
2022-08-11T20:38:41.388Z,101056.94
2022-08-11T20:42:03.330Z,101055.75
2022-08-11T20:45:26.593Z,101061.50
2022-08-11T20:48:49.441Z,101059.28
2022-08-11T20:52:10.200Z,101067.44
2022-08-11T20:55:52.010Z,101063.16
2022-08-11T20:59:17.733Z,101069.59
2022-08-11T21:02:40.919Z,101070.41
2022-08-11T21:06:10.351Z,101075.84
2022-08-11T21:10:01.218Z,101071.91
2022-08-11T21:13:25.131Z,101070.69
2022-08-11T21:16:53.106Z,101079.22
2022-08-11T21:20:21.102Z,101081.69
2022-08-11T21:23:43.131Z,101077.88
2022-08-11T21:27:06.638Z,101072.41
2022-08-11T21:30:27.472Z,101072.19
2022-08-11T21:33:50.150Z,101075.88
2022-08-11T21:37:11.885Z,101082.84
2022-08-11T21:40:35.351Z,101085.00
2022-08-11T21:43:58.978Z,101080.22
2022-08-11T21:47:21.478Z,101083.41
2022-08-11T21:51:01.498Z,101089.66
2022-08-11T21:54:22.804Z,101088.25
2022-08-11T21:57:47.781Z,101083.44
2022-08-11T22:01:10.161Z,101090.69
2022-08-11T22:04:31.964Z,101093.88
2022-08-11T22:07:52.158Z,101094.34
2022-08-11T22:11:12.865Z,101094.63
2022-08-11T22:14:33.066Z,101097.66
2022-08-11T22:17:57.416Z,101095.72
2022-08-11T22:22:01.158Z,101094.47
2022-08-11T22:25:00.289Z,101096.97
2022-08-11T22:28:20.672Z,101101.56
2022-08-11T22:31:41.270Z,101098.44
2022-08-11T22:35:01.914Z,101101.63
2022-08-11T22:38:22.510Z,101101.22
2022-08-11T22:41:43.376Z,101098.97
2022-08-11T22:45:03.729Z,101097.00
2022-08-11T22:48:24.381Z,101096.28
2022-08-11T22:51:45.587Z,101098.78
2022-08-11T22:55:07.448Z,101096.34
2022-08-11T22:58:30.761Z,101101.38
2022-08-11T23:01:56.591Z,101102.31
2022-08-11T23:05:18.297Z,101095.72
2022-08-11T23:08:39.378Z,101101.06
2022-08-11T23:12:07.018Z,101101.34
2022-08-11T23:15:30.426Z,101099.22
2022-08-11T23:18:50.987Z,101093.34
2022-08-11T23:22:12.943Z,101094.94
2022-08-11T23:25:33.382Z,101095.38
2022-08-11T23:28:54.064Z,101090.56
2022-08-11T23:32:22.319Z,101097.47
2022-08-11T23:35:52.714Z,101096.03
2022-08-11T23:39:17.481Z,101092.06
2022-08-11T23:42:38.243Z,101094.34
2022-08-11T23:45:58.692Z,101096.66
2022-08-11T23:49:22.636Z,101101.38
2022-08-11T23:52:44.868Z,101093.97
2022-08-11T23:56:05.480Z,101097.09
2022-08-11T23:59:26.905Z,101089.41
